createdAt,value
2024-05-09T00:00:39.888Z,5.03
2024-05-09T00:03:12.025Z,4.88
2024-05-09T00:05:46.464Z,4.30
2024-05-09T00:08:16.859Z,5.10
2024-05-09T00:10:46.815Z,5.68
2024-05-09T00:13:16.919Z,5.72
2024-05-09T00:15:46.712Z,5.95
2024-05-09T00:18:16.711Z,5.30
2024-05-09T00:20:49.282Z,5.20
2024-05-09T00:23:19.267Z,5.30
2024-05-09T00:25:49.095Z,5.30
2024-05-09T00:28:18.916Z,5.35
2024-05-09T00:30:48.672Z,5.50
2024-05-09T00:33:18.761Z,4.90
2024-05-09T00:35:51.293Z,4.53
2024-05-09T00:38:21.271Z,4.80
2024-05-09T00:40:51.173Z,3.95
2024-05-09T00:43:20.949Z,4.28
2024-05-09T00:45:51.342Z,4.18
2024-05-09T00:48:21.719Z,4.82
2024-05-09T00:50:55.967Z,5.07
2024-05-09T00:53:26.872Z,4.82
2024-05-09T00:55:59.023Z,4.32
2024-05-09T00:58:31.913Z,4.38
2024-05-09T01:01:04.406Z,4.43
2024-05-09T01:03:34.303Z,4.85
2024-05-09T01:06:07.140Z,4.25
2024-05-09T01:08:37.161Z,5.13
2024-05-09T01:11:09.174Z,4.35
2024-05-09T01:13:39.128Z,4.63
2024-05-09T01:16:09.390Z,5.85
2024-05-09T01:18:39.319Z,5.10
2024-05-09T01:21:11.934Z,4.97
2024-05-09T01:23:44.544Z,5.43
2024-05-09T01:26:14.520Z,5.05
2024-05-09T01:28:44.548Z,4.95
2024-05-09T01:31:16.175Z,5.30
2024-05-09T01:33:46.428Z,4.90
2024-05-09T01:36:16.357Z,4.55
2024-05-09T01:38:49.000Z,5.13
2024-05-09T01:41:18.801Z,5.03
2024-05-09T01:43:48.637Z,5.10
2024-05-09T01:46:19.531Z,6.07
2024-05-09T01:48:49.914Z,4.50
2024-05-09T01:51:19.983Z,4.90
2024-05-09T01:53:52.438Z,5.03
2024-05-09T01:56:31.022Z,5.43
2024-05-09T01:59:02.030Z,4.68
2024-05-09T02:01:55.310Z,4.63
2024-05-09T02:04:21.811Z,5.60
2024-05-09T02:06:51.672Z,4.90
2024-05-09T02:09:24.193Z,5.28
2024-05-09T02:11:54.192Z,4.22
2024-05-09T02:14:24.193Z,4.82
2024-05-09T02:16:54.124Z,5.20
2024-05-09T02:19:24.028Z,4.78
2024-05-09T02:21:53.947Z,4.80
2024-05-09T02:24:26.676Z,5.13
2024-05-09T02:26:56.466Z,5.13
2024-05-09T02:29:26.489Z,6.07
2024-05-09T02:31:56.488Z,5.32
2024-05-09T02:34:26.445Z,6.20
2024-05-09T02:36:56.509Z,5.57
2024-05-09T02:39:26.493Z,5.22
2024-05-09T02:41:56.268Z,5.03
2024-05-09T02:44:23.587Z,5.68
2024-05-09T02:46:53.541Z,5.78
2024-05-09T02:49:20.796Z,5.38
2024-05-09T02:51:50.641Z,6.20
2024-05-09T02:54:17.785Z,5.85
2024-05-09T02:56:50.219Z,5.28
2024-05-09T02:59:17.399Z,4.68
2024-05-09T03:01:47.770Z,5.10
2024-05-09T03:04:15.017Z,5.72
2024-05-09T03:06:45.037Z,4.68
2024-05-09T03:09:12.261Z,4.55
2024-05-09T03:11:42.234Z,3.92
2024-05-09T03:14:16.677Z,3.92
2024-05-09T03:16:46.613Z,3.40
2024-05-09T03:19:13.940Z,4.25
2024-05-09T03:21:43.880Z,4.10
2024-05-09T03:24:11.614Z,3.67
2024-05-09T03:26:41.401Z,4.03
2024-05-09T03:29:08.584Z,4.00
2024-05-09T03:31:41.849Z,3.38
2024-05-09T03:34:10.192Z,3.88
2024-05-09T03:36:44.327Z,3.85
2024-05-09T03:39:17.157Z,4.05
2024-05-09T03:41:46.924Z,3.85
2024-05-09T03:44:16.786Z,3.63
2024-05-09T03:46:49.301Z,3.88
2024-05-09T03:49:16.677Z,3.78
2024-05-09T03:51:47.011Z,3.80
2024-05-09T03:54:14.393Z,4.75
2024-05-09T03:56:44.220Z,4.78
2024-05-09T03:59:11.532Z,4.25
2024-05-09T04:01:41.571Z,4.35
2024-05-09T04:04:12.438Z,4.22
2024-05-09T04:06:43.275Z,4.38
2024-05-09T04:09:10.449Z,4.78
2024-05-09T04:11:40.479Z,4.05
2024-05-09T04:14:07.807Z,3.97
2024-05-09T04:16:37.603Z,3.90
2024-05-09T04:19:04.884Z,4.30
2024-05-09T04:21:37.422Z,4.10
2024-05-09T04:24:04.986Z,4.28
2024-05-09T04:26:34.845Z,4.03
2024-05-09T04:29:02.072Z,4.35
2024-05-09T04:31:32.314Z,4.13
2024-05-09T04:33:59.607Z,3.97
2024-05-09T04:36:29.592Z,3.85
2024-05-09T04:38:59.338Z,4.85
2024-05-09T04:41:29.475Z,4.10
2024-05-09T04:43:56.716Z,4.25
2024-05-09T04:46:26.536Z,4.38
2024-05-09T04:48:54.021Z,4.53
2024-05-09T04:51:23.889Z,3.70
2024-05-09T04:53:51.064Z,4.07
2024-05-09T04:56:47.395Z,4.30
2024-05-09T04:59:14.587Z,4.43
2024-05-09T05:01:44.401Z,3.42
2024-05-09T05:04:11.661Z,3.88
2024-05-09T05:06:41.453Z,3.50
2024-05-09T05:09:08.654Z,3.70
2024-05-09T05:11:38.497Z,4.38
2024-05-09T05:14:08.380Z,4.00
2024-05-09T05:16:38.198Z,4.60
2024-05-09T05:19:07.575Z,4.03
2024-05-09T05:21:39.084Z,4.25
2024-05-09T05:24:06.601Z,4.30
2024-05-09T05:26:36.976Z,4.18
2024-05-09T05:29:04.252Z,3.90
2024-05-09T05:31:36.814Z,4.80
2024-05-09T05:34:04.045Z,4.18
2024-05-09T05:36:33.847Z,4.30
2024-05-09T05:39:01.047Z,4.35
2024-05-09T05:41:31.032Z,4.50
2024-05-09T05:43:58.302Z,5.22
2024-05-09T05:46:28.109Z,5.18
2024-05-09T05:48:57.962Z,4.95
2024-05-09T05:51:27.848Z,5.55
2024-05-09T05:53:55.361Z,7.45
2024-05-09T05:56:32.417Z,9.23
2024-05-09T05:58:59.633Z,9.43
2024-05-09T06:01:31.764Z,9.07
2024-05-09T06:04:01.616Z,9.30
2024-05-09T06:06:31.510Z,10.15
2024-05-09T06:08:58.708Z,10.65
2024-05-09T06:11:29.598Z,11.52
2024-05-09T06:13:56.908Z,13.35
2024-05-09T06:16:26.771Z,14.35
2024-05-09T06:18:54.257Z,14.27
2024-05-09T06:21:26.809Z,14.05
2024-05-09T06:23:59.998Z,14.27
2024-05-09T06:26:28.925Z,13.98
2024-05-09T06:29:00.009Z,14.23
2024-05-09T06:31:27.619Z,14.40
2024-05-09T06:34:00.455Z,13.82
2024-05-09T06:36:33.424Z,14.77
2024-05-09T06:39:03.355Z,15.13
2024-05-09T06:41:31.571Z,13.75
2024-05-09T06:44:01.545Z,15.02
2024-05-09T06:46:48.165Z,16.00
2024-05-09T06:49:18.104Z,15.32
2024-05-09T06:51:48.026Z,14.80
2024-05-09T06:54:18.442Z,15.90
2024-05-09T06:56:45.590Z,15.80
2024-05-09T06:59:15.372Z,15.43
2024-05-09T07:01:42.626Z,15.73
2024-05-09T07:04:12.665Z,16.88
2024-05-09T07:06:39.946Z,15.73
2024-05-09T07:09:12.356Z,15.88
2024-05-09T07:11:41.048Z,15.98
2024-05-09T07:14:10.966Z,17.08
2024-05-09T07:16:38.160Z,15.98
2024-05-09T07:19:08.262Z,15.50
2024-05-09T07:21:35.650Z,15.95
2024-05-09T07:24:06.373Z,15.20
2024-05-09T07:26:36.323Z,17.80
2024-05-09T07:29:06.212Z,14.40
2024-05-09T07:31:33.351Z,15.98
2024-05-09T07:34:03.211Z,15.95
2024-05-09T07:36:30.374Z,15.40
2024-05-09T07:39:00.985Z,15.75
2024-05-09T07:41:28.173Z,15.15
2024-05-09T07:44:00.668Z,15.95
2024-05-09T07:47:36.808Z,15.75
2024-05-09T07:51:31.277Z,15.32
2024-05-09T07:54:38.081Z,16.15
2024-05-09T07:57:05.652Z,15.95
2024-05-09T07:59:38.299Z,14.88
2024-05-09T08:02:05.878Z,15.70
2024-05-09T08:04:35.968Z,15.32
2024-05-09T08:07:03.322Z,14.73
2024-05-09T08:09:33.884Z,14.90
2024-05-09T08:12:01.780Z,13.80
2024-05-09T08:14:31.555Z,14.45
2024-05-09T08:17:01.440Z,12.90
2024-05-09T08:19:31.257Z,13.20
2024-05-09T08:21:58.470Z,12.88
2024-05-09T08:24:28.304Z,13.15
2024-05-09T08:26:55.457Z,12.70
2024-05-09T08:29:25.268Z,12.02
2024-05-09T08:31:56.169Z,10.35
2024-05-09T08:34:28.932Z,10.30
2024-05-09T08:36:57.619Z,8.70
2024-05-09T08:39:29.404Z,9.50
2024-05-09T08:41:56.822Z,9.00
2024-05-09T08:44:26.605Z,8.82
2024-05-09T08:46:54.045Z,7.95
2024-05-09T08:49:25.702Z,8.88
2024-05-09T08:51:55.713Z,7.70
2024-05-09T08:54:25.605Z,7.88
2024-05-09T08:56:52.898Z,7.43
2024-05-09T08:59:30.147Z,8.35
2024-05-09T09:01:58.138Z,7.65
2024-05-09T09:04:29.463Z,6.88
2024-05-09T09:07:00.415Z,7.85
2024-05-09T09:09:33.442Z,7.25
2024-05-09T09:12:01.042Z,7.28
2024-05-09T09:14:30.981Z,7.03
2024-05-09T09:16:58.130Z,6.63
2024-05-09T09:19:28.212Z,6.30
2024-05-09T09:21:55.441Z,7.82
2024-05-09T09:24:28.000Z,7.85
2024-05-09T09:26:57.336Z,7.28
2024-05-09T09:29:27.688Z,6.93
2024-05-09T09:32:21.118Z,6.53
2024-05-09T09:34:51.256Z,7.07
2024-05-09T09:37:23.710Z,8.20
2024-05-09T09:39:57.092Z,7.63
2024-05-09T09:42:27.884Z,6.93
2024-05-09T09:45:04.612Z,7.60
2024-05-09T09:47:35.353Z,7.60
2024-05-09T09:50:12.027Z,7.93
2024-05-09T09:52:41.812Z,8.57
2024-05-09T09:55:15.063Z,7.45
2024-05-09T09:57:44.459Z,7.35
2024-05-09T10:00:23.615Z,8.15
2024-05-09T10:02:54.100Z,7.93
2024-05-09T10:05:24.283Z,7.60
2024-05-09T10:07:52.777Z,8.05
2024-05-09T10:10:32.473Z,8.10
2024-05-09T10:13:01.386Z,7.78
2024-05-09T10:15:31.372Z,8.13
2024-05-09T10:18:05.529Z,7.55
2024-05-09T10:20:43.397Z,8.05
2024-05-09T10:23:27.618Z,7.47
2024-05-09T10:26:05.307Z,5.90
2024-05-09T10:28:35.580Z,7.15
2024-05-09T10:31:09.965Z,6.50
2024-05-09T10:33:45.375Z,6.32
2024-05-09T10:36:16.099Z,5.70
2024-05-09T10:38:43.991Z,5.93
2024-05-09T10:41:16.504Z,6.97
2024-05-09T10:43:46.177Z,5.55
2024-05-09T10:46:16.689Z,4.97
2024-05-09T10:48:44.389Z,5.38
2024-05-09T10:51:14.904Z,4.95
2024-05-09T10:53:42.708Z,5.50
2024-05-09T10:56:13.072Z,6.78
2024-05-09T10:58:42.989Z,6.85
2024-05-09T11:01:14.097Z,6.65
2024-05-09T11:03:41.988Z,6.30
2024-05-09T11:06:13.880Z,6.90
2024-05-09T11:08:42.352Z,7.45
2024-05-09T11:11:12.317Z,5.72
2024-05-09T11:13:42.874Z,5.60
2024-05-09T11:16:20.633Z,6.00
2024-05-09T11:18:55.750Z,5.63
2024-05-09T11:21:27.018Z,4.97
2024-05-09T11:23:54.804Z,5.13
2024-05-09T11:26:25.480Z,4.95
2024-05-09T11:28:55.387Z,5.55
2024-05-09T11:31:25.377Z,5.22
2024-05-09T11:33:54.769Z,5.55
2024-05-09T11:36:24.693Z,6.10
2024-05-09T11:38:51.876Z,5.50
2024-05-09T11:41:21.722Z,5.63
2024-05-09T11:43:48.893Z,5.43
2024-05-09T11:46:21.621Z,4.65
2024-05-09T11:48:49.102Z,4.38
2024-05-09T11:51:18.955Z,4.50
2024-05-09T11:53:46.113Z,4.50
2024-05-09T11:56:28.045Z,5.55
2024-05-09T11:58:55.188Z,5.40
2024-05-09T12:01:28.124Z,5.20
2024-05-09T12:03:55.601Z,4.55
2024-05-09T12:06:25.630Z,4.45
2024-05-09T12:08:52.832Z,4.13
2024-05-09T12:11:22.634Z,3.72
2024-05-09T12:13:49.780Z,4.10
2024-05-09T12:16:19.756Z,4.70
2024-05-09T12:18:49.954Z,4.18
2024-05-09T12:21:20.771Z,4.13
2024-05-09T12:23:47.963Z,3.88
2024-05-09T12:26:18.497Z,3.85
2024-05-09T12:28:45.698Z,4.18
2024-05-09T12:31:15.577Z,4.20
2024-05-09T12:33:42.816Z,4.90
2024-05-09T12:36:15.358Z,4.10
2024-05-09T12:38:42.526Z,3.97
2024-05-09T12:41:12.300Z,3.75
2024-05-09T12:43:39.514Z,3.75
2024-05-09T12:46:09.477Z,3.78
2024-05-09T12:48:37.174Z,4.35
2024-05-09T12:51:07.433Z,4.00
2024-05-09T12:53:37.291Z,3.55
2024-05-09T12:56:09.385Z,3.88
2024-05-09T12:58:36.991Z,3.38
2024-05-09T13:01:08.936Z,4.07
2024-05-09T13:03:36.299Z,4.15
2024-05-09T13:06:06.412Z,3.75
2024-05-09T13:08:33.612Z,3.30
2024-05-09T13:11:06.169Z,3.55
2024-05-09T13:13:33.419Z,3.90
2024-05-09T13:16:03.320Z,3.55
2024-05-09T13:18:30.703Z,3.67
2024-05-09T13:21:00.522Z,3.78
2024-05-09T13:23:27.710Z,3.47
2024-05-09T13:25:57.596Z,3.60
2024-05-09T13:28:27.622Z,3.13
2024-05-09T13:30:57.578Z,2.67
2024-05-09T13:33:24.822Z,3.28
2024-05-09T13:35:54.776Z,3.28
2024-05-09T13:38:22.524Z,3.13
2024-05-09T13:40:53.445Z,3.28
2024-05-09T13:43:22.306Z,3.20
2024-05-09T13:45:55.933Z,2.90
2024-05-09T13:50:52.939Z,2.88
2024-05-09T13:53:24.175Z,3.00
2024-05-09T13:55:54.104Z,2.90
2024-05-09T13:58:23.614Z,2.92
2024-05-09T14:00:56.401Z,3.50
2024-05-09T14:03:24.745Z,2.63
2024-05-09T14:05:54.851Z,2.60
2024-05-09T14:08:22.970Z,3.05
2024-05-09T14:10:53.888Z,3.28
2024-05-09T14:13:21.380Z,2.67
2024-05-09T14:15:51.521Z,2.50
2024-05-09T14:18:21.714Z,2.65
2024-05-09T14:20:51.490Z,2.95
2024-05-09T14:23:18.963Z,2.97
2024-05-09T14:25:52.164Z,2.53
2024-05-09T14:30:49.759Z,2.80
2024-05-09T14:33:23.666Z,2.78
2024-05-09T14:35:56.305Z,2.67
2024-05-09T14:38:24.164Z,2.45
2024-05-09T14:40:54.020Z,2.67
2024-05-09T14:43:21.491Z,2.55
2024-05-09T14:45:52.715Z,2.33
2024-05-09T14:48:20.405Z,2.10
2024-05-09T14:50:50.594Z,2.88
2024-05-09T14:53:23.683Z,2.60
2024-05-09T14:55:53.583Z,2.13
2024-05-09T14:58:20.853Z,2.42
2024-05-09T15:00:51.751Z,1.88
2024-05-09T15:03:20.236Z,3.05
2024-05-09T15:05:51.600Z,2.75
2024-05-09T15:08:21.950Z,2.05
2024-05-09T15:10:52.258Z,2.38
2024-05-09T15:13:19.983Z,2.13
2024-05-09T15:15:50.087Z,2.58
2024-05-09T15:18:19.964Z,2.92
2024-05-09T15:20:50.194Z,2.40
2024-05-09T15:23:17.466Z,2.30
2024-05-09T15:25:49.872Z,1.85
2024-05-09T15:28:17.183Z,2.88
2024-05-09T15:30:48.237Z,2.33
2024-05-09T15:33:15.664Z,2.85
2024-05-09T15:35:48.594Z,2.33
2024-05-09T15:38:20.467Z,2.20
2024-05-09T15:40:53.757Z,2.85
2024-05-09T15:43:21.058Z,2.60
2024-05-09T15:45:51.301Z,2.47
2024-05-09T15:48:18.988Z,2.45
2024-05-09T15:50:48.989Z,2.58
2024-05-09T15:53:16.451Z,2.25
2024-05-09T15:55:46.202Z,2.90
2024-05-09T15:58:16.275Z,2.60
2024-05-09T16:00:48.673Z,2.33
2024-05-09T16:03:17.746Z,2.30
2024-05-09T16:05:48.322Z,2.45
2024-05-09T16:08:16.536Z,2.33
2024-05-09T16:10:47.451Z,2.78
2024-05-09T16:13:19.806Z,2.17
2024-05-09T16:15:49.965Z,2.25
2024-05-09T16:18:17.477Z,2.80
2024-05-09T16:20:49.589Z,2.85
2024-05-09T16:23:17.764Z,2.35
2024-05-09T16:25:48.490Z,2.15
2024-05-09T16:28:19.394Z,2.58
2024-05-09T16:30:50.014Z,2.28
2024-05-09T16:33:20.997Z,2.55
2024-05-09T16:35:51.088Z,1.83
2024-05-09T16:38:18.682Z,1.90
2024-05-09T16:40:48.952Z,2.30
2024-05-09T16:43:19.392Z,2.10
2024-05-09T16:45:49.379Z,3.95
2024-05-09T16:48:17.062Z,2.42
2024-05-09T16:50:46.875Z,2.05
2024-05-09T16:53:14.037Z,2.50
2024-05-09T16:55:43.940Z,2.15
2024-05-09T16:58:12.753Z,2.00
2024-05-09T17:00:45.529Z,2.45
2024-05-09T17:03:15.204Z,2.42
2024-05-09T17:05:47.041Z,2.38
2024-05-09T17:08:18.639Z,2.05
2024-05-09T17:10:46.435Z,2.90
2024-05-09T17:13:16.593Z,2.65
2024-05-09T17:15:50.045Z,2.70
2024-05-09T17:20:49.265Z,2.38
2024-05-09T17:23:19.731Z,2.50
2024-05-09T17:25:47.994Z,2.45
2024-05-09T17:28:19.338Z,2.15
2024-05-09T17:30:50.119Z,3.20
2024-05-09T17:33:20.120Z,2.35
2024-05-09T17:35:50.821Z,2.35
2024-05-09T17:38:23.039Z,2.05
2024-05-09T17:40:50.910Z,2.53
2024-05-09T17:43:20.942Z,2.45
2024-05-09T17:45:50.923Z,2.40
2024-05-09T17:48:20.937Z,2.25
2024-05-09T17:50:48.189Z,2.10
2024-05-09T17:53:17.973Z,2.50
2024-05-09T17:55:45.190Z,2.53
2024-05-09T17:58:15.652Z,2.17
2024-05-09T18:00:43.074Z,2.28
2024-05-09T18:03:15.648Z,2.53
2024-05-09T18:05:44.125Z,2.28
2024-05-09T18:08:14.716Z,2.50
2024-05-09T18:10:42.342Z,2.80
2024-05-09T18:13:13.459Z,1.90
2024-05-09T18:15:41.258Z,2.58
2024-05-09T18:18:11.973Z,2.85
2024-05-09T18:20:45.364Z,2.78
2024-05-09T18:23:18.034Z,2.78
2024-05-09T18:25:47.184Z,2.25
2024-05-09T18:28:17.930Z,2.22
2024-05-09T18:30:45.465Z,2.47
2024-05-09T18:33:15.875Z,2.45
2024-05-09T18:35:45.799Z,2.22
2024-05-09T18:38:18.658Z,2.30
2024-05-09T18:40:48.503Z,2.20
2024-05-09T18:43:25.952Z,3.22
2024-05-09T18:46:00.744Z,2.65
2024-05-09T18:48:28.046Z,2.67
2024-05-09T18:51:00.585Z,2.13
2024-05-09T18:53:31.237Z,2.45
2024-05-09T18:56:01.131Z,1.95
2024-05-09T18:58:28.310Z,2.63
2024-05-09T19:01:00.830Z,2.67
2024-05-09T19:03:29.112Z,2.75
2024-05-09T19:06:04.733Z,3.03
2024-05-09T19:08:32.060Z,3.10
2024-05-09T19:11:02.196Z,2.70
2024-05-09T19:13:29.706Z,2.70
2024-05-09T19:15:59.974Z,2.72
2024-05-09T19:18:27.284Z,3.40
2024-05-09T19:20:57.291Z,2.60
2024-05-09T19:23:27.108Z,2.60
2024-05-09T19:25:56.956Z,3.10
2024-05-09T19:28:24.307Z,2.53
2024-05-09T19:30:54.230Z,3.08
2024-05-09T19:33:21.460Z,3.10
2024-05-09T19:35:51.343Z,2.42
2024-05-09T19:38:18.712Z,2.88
2024-05-09T19:40:51.174Z,3.03
2024-05-09T19:43:18.616Z,2.50
2024-05-09T19:45:48.692Z,2.95
2024-05-09T19:48:16.638Z,2.50
2024-05-09T19:50:49.771Z,2.60
2024-05-09T19:53:18.615Z,3.10
2024-05-09T19:55:51.001Z,3.35
2024-05-09T19:58:18.230Z,3.30
2024-05-09T20:00:48.147Z,3.55
2024-05-09T20:03:16.168Z,3.70
2024-05-09T20:05:48.802Z,3.90
2024-05-09T20:08:16.609Z,3.33
2024-05-09T20:10:52.420Z,3.70
2024-05-09T20:13:19.763Z,3.80
2024-05-09T20:15:50.816Z,3.47
2024-05-09T20:18:19.442Z,3.00
2024-05-09T20:20:55.215Z,3.53
2024-05-09T20:23:22.532Z,3.88
2024-05-09T20:25:57.321Z,3.22
2024-05-09T20:28:24.689Z,2.58
2024-05-09T20:30:55.604Z,3.28
2024-05-09T20:33:25.849Z,3.33
2024-05-09T20:36:01.646Z,3.33
2024-05-09T20:38:29.417Z,3.22
2024-05-09T20:41:02.075Z,2.97
2024-05-09T20:43:29.389Z,2.95
2024-05-09T20:45:59.243Z,2.60
2024-05-09T20:48:26.612Z,3.08
2024-05-09T20:50:56.516Z,3.17
2024-05-09T20:53:23.899Z,2.95
2024-05-09T20:55:54.003Z,3.03
2024-05-09T20:58:24.116Z,2.80
2024-05-09T21:00:55.731Z,3.30
2024-05-09T21:03:23.032Z,3.63
2024-05-09T21:05:52.963Z,3.53
2024-05-09T21:08:20.126Z,3.63
2024-05-09T21:10:49.965Z,3.60
2024-05-09T21:13:17.206Z,3.10
2024-05-09T21:15:49.751Z,3.58
2024-05-09T21:18:17.010Z,3.10
2024-05-09T21:20:47.130Z,2.95
2024-05-09T21:23:15.623Z,2.70
2024-05-09T21:25:45.560Z,3.05
2024-05-09T21:28:13.483Z,2.65
2024-05-09T21:30:43.595Z,2.47
2024-05-09T21:33:14.856Z,2.95
2024-05-09T21:35:45.791Z,2.97
2024-05-09T21:38:14.611Z,2.60
2024-05-09T21:40:45.428Z,2.40
2024-05-09T21:43:13.155Z,2.38
2024-05-09T21:45:43.220Z,2.60
2024-05-09T21:48:15.396Z,2.63
2024-05-09T21:50:45.299Z,2.47
2024-05-09T21:53:13.430Z,2.83
2024-05-09T21:55:44.333Z,2.75
2024-05-09T21:58:12.203Z,2.70
2024-05-09T22:00:43.048Z,2.83
2024-05-09T22:03:11.624Z,2.92
2024-05-09T22:05:45.194Z,3.13
2024-05-09T22:08:12.797Z,2.60
2024-05-09T22:10:42.754Z,2.75
2024-05-09T22:13:12.693Z,3.05
2024-05-09T22:15:40.748Z,2.88
2024-05-09T22:18:11.997Z,3.78
2024-05-09T22:20:44.959Z,3.20
2024-05-09T22:23:16.292Z,3.22
2024-05-09T22:25:43.650Z,3.30
2024-05-09T22:28:15.761Z,3.00
2024-05-09T22:30:46.242Z,3.53
2024-05-09T22:33:17.744Z,3.10
2024-05-09T22:35:48.220Z,3.83
2024-05-09T22:38:18.119Z,3.25
2024-05-09T22:40:48.661Z,4.10
2024-05-09T22:43:23.865Z,3.50
2024-05-09T22:45:52.668Z,3.25
2024-05-09T22:48:23.869Z,3.45
2024-05-09T22:50:55.073Z,4.00
2024-05-09T22:53:26.100Z,3.47
2024-05-09T22:56:03.408Z,3.45
2024-05-09T22:58:33.201Z,3.60
2024-05-09T23:01:00.537Z,4.10
2024-05-09T23:03:30.621Z,3.92
2024-05-09T23:06:00.507Z,4.03
2024-05-09T23:08:30.310Z,4.30
2024-05-09T23:10:57.748Z,3.70
2024-05-09T23:13:27.814Z,3.63
2024-05-09T23:15:55.116Z,4.22
2024-05-09T23:18:24.932Z,2.95
2024-05-09T23:20:52.110Z,3.63
2024-05-09T23:23:24.577Z,4.20
2024-05-09T23:25:51.699Z,3.30
2024-05-09T23:28:21.656Z,3.67
2024-05-09T23:30:49.068Z,3.47
2024-05-09T23:33:19.068Z,3.80
2024-05-09T23:35:46.249Z,3.63
2024-05-09T23:38:16.309Z,3.65
2024-05-09T23:40:46.214Z,3.05
2024-05-09T23:43:17.142Z,3.50
2024-05-09T23:45:44.377Z,3.30
2024-05-09T23:48:14.429Z,3.10
2024-05-09T23:50:42.013Z,2.95
2024-05-09T23:53:11.913Z,3.00
2024-05-09T23:55:39.492Z,3.00
2024-05-09T23:58:12.300Z,2.97
